createdAt,value
2018-10-09T00:00:03.611Z,7.32
2018-10-09T00:01:03.604Z,7.30
2018-10-09T00:02:03.592Z,7.27
2018-10-09T00:03:03.582Z,7.27
2018-10-09T00:04:03.569Z,7.29
2018-10-09T00:05:03.557Z,7.27
2018-10-09T00:06:03.547Z,7.30
2018-10-09T00:07:03.536Z,7.32
2018-10-09T00:08:03.525Z,7.34
2018-10-09T00:09:03.514Z,7.34
2018-10-09T00:10:03.503Z,7.34
2018-10-09T00:11:03.491Z,7.30
2018-10-09T00:12:03.482Z,7.24
2018-10-09T00:13:03.473Z,7.21
2018-10-09T00:14:03.459Z,7.15
2018-10-09T00:15:03.449Z,7.12
2018-10-09T00:16:03.438Z,7.14
2018-10-09T00:17:03.426Z,7.16
2018-10-09T00:18:03.416Z,7.19
2018-10-09T00:19:03.404Z,7.23
2018-10-09T00:20:03.394Z,7.26
2018-10-09T00:21:03.385Z,7.26
2018-10-09T00:22:03.372Z,7.27
2018-10-09T00:23:03.362Z,7.27
2018-10-09T00:24:03.348Z,7.29
2018-10-09T00:25:03.359Z,7.26
2018-10-09T00:26:03.354Z,7.26
2018-10-09T00:27:03.317Z,7.24
2018-10-09T00:28:03.306Z,7.26
2018-10-09T00:29:03.294Z,7.26
2018-10-09T00:30:03.285Z,7.26
2018-10-09T00:31:03.278Z,7.24
2018-10-09T00:32:03.261Z,7.26
2018-10-09T00:33:03.251Z,7.26
2018-10-09T00:34:03.239Z,7.21
2018-10-09T00:35:03.231Z,7.16
2018-10-09T00:36:03.217Z,7.11
2018-10-09T00:37:03.207Z,7.08
2018-10-09T00:38:03.197Z,7.04
2018-10-09T00:39:03.185Z,6.97
2018-10-09T00:40:03.172Z,6.94
2018-10-09T00:41:03.162Z,6.94
2018-10-09T00:42:03.152Z,6.90
2018-10-09T00:43:03.147Z,6.90
2018-10-09T00:44:03.129Z,6.88
2018-10-09T00:45:03.119Z,6.86
2018-10-09T00:46:03.108Z,6.86
2018-10-09T00:47:03.097Z,6.89
2018-10-09T00:48:03.086Z,6.89
2018-10-09T00:49:03.079Z,6.97
2018-10-09T00:50:03.064Z,7.01
2018-10-09T00:51:03.053Z,7.04
2018-10-09T00:52:03.041Z,7.00
2018-10-09T00:53:03.031Z,7.01
2018-10-09T00:54:03.021Z,7.05
2018-10-09T00:55:03.008Z,7.01
2018-10-09T00:56:03.008Z,7.01
2018-10-09T00:57:02.986Z,7.00
2018-10-09T00:58:02.976Z,6.97
2018-10-09T00:59:02.966Z,6.99
2018-10-09T01:00:02.956Z,7.00
2018-10-09T01:01:02.944Z,7.04
2018-10-09T01:02:02.933Z,7.04
2018-10-09T01:03:02.922Z,7.05
2018-10-09T01:04:02.910Z,7.04
2018-10-09T01:05:02.899Z,7.04
2018-10-09T01:06:02.888Z,7.05
2018-10-09T01:07:02.879Z,7.07
2018-10-09T01:08:02.866Z,7.08
2018-10-09T01:09:02.886Z,7.07
2018-10-09T01:10:02.848Z,7.09
2018-10-09T01:11:02.835Z,7.11
2018-10-09T01:12:02.823Z,7.12
2018-10-09T01:13:02.811Z,7.12
2018-10-09T01:14:02.802Z,7.11
2018-10-09T01:15:02.791Z,7.11
2018-10-09T01:16:02.779Z,7.08
2018-10-09T01:17:02.769Z,7.09
2018-10-09T01:18:02.758Z,7.08
2018-10-09T01:19:02.746Z,7.07
2018-10-09T01:20:02.738Z,7.00
2018-10-09T01:21:02.725Z,6.97
2018-10-09T01:22:02.717Z,6.92
2018-10-09T01:23:02.702Z,6.89
2018-10-09T01:24:02.692Z,6.88
2018-10-09T01:25:02.681Z,6.88
2018-10-09T01:26:02.669Z,6.86
2018-10-09T01:27:02.658Z,6.86
2018-10-09T01:28:02.649Z,6.86
2018-10-09T01:29:02.636Z,6.85
2018-10-09T01:30:02.628Z,6.86
2018-10-09T01:31:02.617Z,6.86
2018-10-09T01:32:02.608Z,6.86
2018-10-09T01:33:02.596Z,6.86
2018-10-09T01:34:02.583Z,6.88
2018-10-09T01:35:02.572Z,6.94
2018-10-09T01:36:02.560Z,6.96
2018-10-09T01:37:02.550Z,6.94
2018-10-09T01:38:02.540Z,6.94
2018-10-09T01:39:02.530Z,6.96
2018-10-09T01:40:02.516Z,6.96
2018-10-09T01:41:02.507Z,6.97
2018-10-09T01:42:02.500Z,6.99
2018-10-09T01:43:02.490Z,6.99
2018-10-09T01:44:02.472Z,7.00
2018-10-09T01:45:02.464Z,7.01
2018-10-09T01:46:02.453Z,7.00
2018-10-09T01:47:02.454Z,7.00
2018-10-09T01:48:02.432Z,7.01
2018-10-09T01:49:02.418Z,7.00
2018-10-09T01:50:02.411Z,6.99
2018-10-09T01:51:02.397Z,7.00
2018-10-09T01:52:02.386Z,6.99
2018-10-09T01:53:02.374Z,6.97
2018-10-09T01:54:02.363Z,6.96
2018-10-09T01:55:02.352Z,6.96
2018-10-09T01:56:02.340Z,6.97
2018-10-09T01:57:02.332Z,6.97
2018-10-09T01:58:02.323Z,6.97
2018-10-09T01:59:02.309Z,6.97
2018-10-09T02:00:02.299Z,6.97
2018-10-09T02:01:02.285Z,6.97
2018-10-09T02:02:02.274Z,6.97
2018-10-09T02:03:02.264Z,6.96
2018-10-09T02:04:02.256Z,6.96
2018-10-09T02:05:02.242Z,6.94
2018-10-09T02:06:02.232Z,6.90
2018-10-09T02:07:02.219Z,6.90
2018-10-09T02:08:02.209Z,6.89
2018-10-09T02:09:02.198Z,6.88
2018-10-09T02:10:02.186Z,6.85
2018-10-09T02:11:02.178Z,6.81
2018-10-09T02:12:02.166Z,6.80
2018-10-09T02:13:02.155Z,6.75
2018-10-09T02:14:02.144Z,6.74
2018-10-09T02:15:02.139Z,6.72
2018-10-09T02:16:02.122Z,6.74
2018-10-09T02:17:02.115Z,6.71
2018-10-09T02:18:02.101Z,6.68
2018-10-09T02:19:02.090Z,6.67
2018-10-09T02:20:02.091Z,6.63
2018-10-09T02:21:02.067Z,6.64
2018-10-09T02:22:02.056Z,6.68
2018-10-09T02:23:02.046Z,6.72
2018-10-09T02:24:02.035Z,6.75
2018-10-09T02:25:02.023Z,6.77
2018-10-09T02:26:02.013Z,6.75
2018-10-09T02:27:02.000Z,6.80
2018-10-09T02:28:01.989Z,6.82
2018-10-09T02:29:01.980Z,6.89
2018-10-09T02:30:01.971Z,6.90
2018-10-09T02:31:01.961Z,6.89
2018-10-09T02:32:01.951Z,6.88
2018-10-09T02:33:01.936Z,6.89
2018-10-09T02:34:01.925Z,6.89
2018-10-09T02:35:01.913Z,6.88
2018-10-09T02:36:01.909Z,6.90
2018-10-09T02:37:01.904Z,6.89
2018-10-09T02:38:01.881Z,6.90
2018-10-09T02:39:01.870Z,6.89
2018-10-09T02:40:01.860Z,6.90
2018-10-09T02:41:01.848Z,6.89
2018-10-09T02:42:01.841Z,6.85
2018-10-09T02:43:01.831Z,6.81
2018-10-09T02:44:01.816Z,6.78
2018-10-09T02:45:01.806Z,6.77
2018-10-09T02:46:01.794Z,6.72
2018-10-09T02:47:01.784Z,6.68
2018-10-09T02:48:01.772Z,6.64
2018-10-09T02:49:01.771Z,6.60
2018-10-09T02:50:01.750Z,6.57
2018-10-09T02:51:01.738Z,6.59
2018-10-09T02:52:01.728Z,6.60
2018-10-09T02:53:01.717Z,6.62
2018-10-09T02:54:01.706Z,6.64
2018-10-09T02:55:01.696Z,6.62
2018-10-09T02:56:01.685Z,6.62
2018-10-09T02:57:01.673Z,6.62
2018-10-09T02:58:01.663Z,6.60
2018-10-09T02:59:01.652Z,6.60
2018-10-09T03:00:01.641Z,6.57
2018-10-09T03:01:01.628Z,6.57
2018-10-09T03:02:01.621Z,6.54
2018-10-09T03:03:01.608Z,6.56
2018-10-09T03:04:01.597Z,6.56
2018-10-09T03:05:01.587Z,6.56
2018-10-09T03:06:01.575Z,6.57
2018-10-09T03:07:01.563Z,6.53
2018-10-09T03:08:01.558Z,6.54
2018-10-09T03:09:01.540Z,6.57
2018-10-09T03:10:01.531Z,6.57
2018-10-09T03:11:01.520Z,6.57
2018-10-09T03:12:01.508Z,6.59
2018-10-09T03:13:01.498Z,6.59
2018-10-09T03:14:01.491Z,6.56
2018-10-09T03:15:01.476Z,6.56
2018-10-09T03:16:01.464Z,6.52
2018-10-09T03:17:01.454Z,6.47
2018-10-09T03:18:01.442Z,6.44
2018-10-09T03:19:01.433Z,6.41
2018-10-09T03:20:01.423Z,6.39
2018-10-09T03:21:01.410Z,6.38
2018-10-09T03:22:01.398Z,6.38
2018-10-09T03:23:01.392Z,6.37
2018-10-09T03:24:01.377Z,6.35
2018-10-09T03:25:01.367Z,6.35
2018-10-09T03:26:01.355Z,6.37
2018-10-09T03:27:01.344Z,6.35
2018-10-09T03:28:01.332Z,6.35
2018-10-09T03:29:01.327Z,6.38
2018-10-09T03:30:01.313Z,6.37
2018-10-09T03:31:01.301Z,6.35
2018-10-09T03:32:01.303Z,6.37
2018-10-09T03:33:01.281Z,6.35
2018-10-09T03:34:01.268Z,6.32
2018-10-09T03:35:01.257Z,6.35
2018-10-09T03:36:01.247Z,6.35
2018-10-09T03:37:01.235Z,6.37
2018-10-09T03:38:01.226Z,6.35
2018-10-09T03:39:01.218Z,6.38
2018-10-09T03:40:01.206Z,6.37
2018-10-09T03:41:01.191Z,6.35
2018-10-09T03:42:01.180Z,6.34
2018-10-09T03:43:01.168Z,6.35
2018-10-09T03:44:01.157Z,6.32
2018-10-09T03:45:01.147Z,6.35
2018-10-09T03:46:01.136Z,6.38
2018-10-09T03:47:01.124Z,6.38
2018-10-09T03:48:01.116Z,6.39
2018-10-09T03:49:01.102Z,6.37
2018-10-09T03:50:01.092Z,6.38
2018-10-09T03:51:01.084Z,6.38
2018-10-09T03:52:01.072Z,6.37
2018-10-09T03:53:01.059Z,6.37
2018-10-09T03:54:01.047Z,6.32
2018-10-09T03:55:01.038Z,6.32
2018-10-09T03:56:01.025Z,6.34
2018-10-09T03:57:01.016Z,6.35
2018-10-09T03:58:01.003Z,6.34
2018-10-09T03:59:00.994Z,6.31
2018-10-09T04:00:00.982Z,6.31
2018-10-09T04:01:00.971Z,6.34
2018-10-09T04:02:00.958Z,6.34
2018-10-09T04:03:00.950Z,6.34
2018-10-09T04:04:00.938Z,6.31
2018-10-09T04:05:00.928Z,6.31
2018-10-09T04:06:00.916Z,6.31
2018-10-09T04:07:00.907Z,6.32
2018-10-09T04:08:00.895Z,6.32
2018-10-09T04:09:00.923Z,6.31
2018-10-09T04:10:00.871Z,6.32
2018-10-09T04:11:00.862Z,6.34
2018-10-09T04:12:00.851Z,6.32
2018-10-09T04:13:00.838Z,6.32
2018-10-09T04:14:00.828Z,6.29
2018-10-09T04:15:00.817Z,6.26
2018-10-09T04:16:00.806Z,6.27
2018-10-09T04:17:00.796Z,6.29
2018-10-09T04:18:00.784Z,6.27
2018-10-09T04:19:00.776Z,6.26
2018-10-09T04:20:00.762Z,6.26
2018-10-09T04:21:00.750Z,6.26
2018-10-09T04:22:00.740Z,6.26
2018-10-09T04:23:00.729Z,6.24
2018-10-09T04:24:00.718Z,6.27
2018-10-09T04:25:00.707Z,6.31
2018-10-09T04:26:00.695Z,6.29
2018-10-09T04:27:00.687Z,6.29
2018-10-09T04:28:00.680Z,6.31
2018-10-09T04:29:00.664Z,6.31
2018-10-09T04:30:00.654Z,6.29
2018-10-09T04:31:00.643Z,6.31
2018-10-09T04:32:00.630Z,6.29
2018-10-09T04:33:00.621Z,6.29
2018-10-09T04:34:00.608Z,6.27
2018-10-09T04:35:00.597Z,6.27
2018-10-09T04:36:00.587Z,6.31
2018-10-09T04:37:00.576Z,6.31
2018-10-09T04:38:00.564Z,6.29
2018-10-09T04:39:00.556Z,6.27
2018-10-09T04:40:00.543Z,6.27
2018-10-09T04:41:00.531Z,6.29
2018-10-09T04:42:00.521Z,6.31
2018-10-09T04:43:00.509Z,6.34
2018-10-09T04:44:00.500Z,6.32
2018-10-09T04:45:00.489Z,6.34
2018-10-09T04:46:00.477Z,6.34
2018-10-09T04:47:00.466Z,6.32
2018-10-09T04:48:00.459Z,6.34
2018-10-09T04:49:00.444Z,6.35
2018-10-09T04:50:00.433Z,6.37
2018-10-09T04:51:00.423Z,6.35
2018-10-09T04:52:00.412Z,6.35
2018-10-09T04:53:00.451Z,6.35
2018-10-09T04:54:00.388Z,6.35
2018-10-09T04:55:00.378Z,6.34
2018-10-09T04:56:00.370Z,6.37
2018-10-09T04:57:00.358Z,6.37
2018-10-09T04:58:00.346Z,6.37
2018-10-09T04:59:00.337Z,6.37
2018-10-09T05:00:00.323Z,6.35
2018-10-09T05:01:00.313Z,6.34
2018-10-09T05:02:00.303Z,6.35
2018-10-09T05:03:00.291Z,6.37
2018-10-09T05:04:00.279Z,6.38
2018-10-09T05:05:00.269Z,6.38
2018-10-09T05:06:00.258Z,6.38
2018-10-09T05:07:00.246Z,6.34
2018-10-09T05:08:00.239Z,6.32
2018-10-09T05:09:00.224Z,6.31
2018-10-09T05:10:00.214Z,6.31
2018-10-09T05:11:00.204Z,6.29
2018-10-09T05:12:00.192Z,6.31
2018-10-09T05:13:00.184Z,6.32
2018-10-09T05:14:00.171Z,6.32
2018-10-09T05:15:00.160Z,6.34
2018-10-09T05:16:00.148Z,6.35
2018-10-09T05:17:00.141Z,6.37
2018-10-09T05:18:00.126Z,6.35
2018-10-09T05:19:00.116Z,6.34
2018-10-09T05:20:00.106Z,6.34
2018-10-09T05:21:00.093Z,6.34
2018-10-09T05:22:00.083Z,6.34
2018-10-09T05:23:00.072Z,6.35
2018-10-09T05:24:00.062Z,6.34
2018-10-09T05:25:00.050Z,6.38
2018-10-09T05:26:00.048Z,6.37
2018-10-09T05:27:00.029Z,6.32
2018-10-09T05:28:00.017Z,6.34
2018-10-09T05:29:00.007Z,6.32
2018-10-09T05:29:59.994Z,6.32
2018-10-09T05:31:00.057Z,6.32
2018-10-09T05:31:59.974Z,6.31
2018-10-09T05:32:59.962Z,6.31
2018-10-09T05:33:59.952Z,6.32
2018-10-09T05:34:59.942Z,6.32
2018-10-09T05:35:59.930Z,6.35
2018-10-09T05:36:59.917Z,6.35
2018-10-09T05:37:59.907Z,6.32
2018-10-09T05:38:59.896Z,6.32
2018-10-09T05:39:59.886Z,6.31
2018-10-09T05:40:59.874Z,6.31
2018-10-09T05:41:59.865Z,6.32
2018-10-09T05:42:59.853Z,6.37
2018-10-09T05:43:59.842Z,6.35
2018-10-09T05:44:59.834Z,6.35
2018-10-09T05:45:59.820Z,6.35
2018-10-09T05:46:59.809Z,6.34
2018-10-09T05:47:59.799Z,6.35
2018-10-09T05:48:59.787Z,6.34
2018-10-09T05:49:59.776Z,6.31
2018-10-09T05:50:59.766Z,6.31
2018-10-09T05:51:59.753Z,6.29
2018-10-09T05:52:59.743Z,6.29
2018-10-09T05:53:59.733Z,6.31
2018-10-09T05:54:59.722Z,6.32
2018-10-09T05:55:59.710Z,6.32
2018-10-09T05:56:59.702Z,6.34
2018-10-09T05:57:59.764Z,6.34
2018-10-09T05:58:59.676Z,6.34
2018-10-09T05:59:59.671Z,6.32
2018-10-09T06:00:59.656Z,6.34
2018-10-09T06:01:59.645Z,6.35
2018-10-09T06:02:59.634Z,6.38
2018-10-09T06:03:59.623Z,6.35
2018-10-09T06:04:59.611Z,6.35
2018-10-09T06:05:59.671Z,6.37
2018-10-09T06:06:59.591Z,6.37
2018-10-09T06:07:59.580Z,6.37
2018-10-09T06:08:59.568Z,6.37
2018-10-09T06:09:59.556Z,6.38
2018-10-09T06:10:59.546Z,6.41
2018-10-09T06:11:59.537Z,6.42
2018-10-09T06:12:59.533Z,6.47
2018-10-09T06:13:59.513Z,6.54
2018-10-09T06:14:59.502Z,6.57
2018-10-09T06:15:59.537Z,6.63
2018-10-09T06:16:59.484Z,6.67
2018-10-09T06:17:59.467Z,6.64
2018-10-09T06:18:59.458Z,6.67
2018-10-09T06:19:59.447Z,6.67
2018-10-09T06:20:59.435Z,6.67
2018-10-09T06:21:59.462Z,6.68
2018-10-09T06:22:59.414Z,6.68
2018-10-09T06:23:59.407Z,6.68
2018-10-09T06:24:59.394Z,6.72
2018-10-09T06:25:59.382Z,6.75
2018-10-09T06:26:59.374Z,6.77
2018-10-09T06:27:59.416Z,6.77
2018-10-09T06:28:59.354Z,6.75
2018-10-09T06:29:59.338Z,6.77
2018-10-09T06:30:59.327Z,6.80
2018-10-09T06:31:59.315Z,6.80
2018-10-09T06:32:59.306Z,6.85
2018-10-09T06:33:59.303Z,6.85
2018-10-09T06:34:59.282Z,6.90
2018-10-09T06:35:59.272Z,6.89
2018-10-09T06:36:59.260Z,6.90
2018-10-09T06:37:59.250Z,6.96
2018-10-09T06:38:59.238Z,7.00
2018-10-09T06:39:59.229Z,7.11
2018-10-09T06:40:59.219Z,7.21
2018-10-09T06:41:59.217Z,7.29
2018-10-09T06:42:59.223Z,7.39
2018-10-09T06:43:59.213Z,7.48
2018-10-09T06:44:59.173Z,7.54
2018-10-09T06:45:59.163Z,7.54
2018-10-09T06:46:59.149Z,7.57
2018-10-09T06:47:59.150Z,7.68
2018-10-09T06:48:59.128Z,7.81
2018-10-09T06:49:59.117Z,7.90
2018-10-09T06:50:59.107Z,7.95
2018-10-09T06:51:59.096Z,8.02
2018-10-09T06:52:59.084Z,8.03
2018-10-09T06:53:59.296Z,8.02
2018-10-09T06:54:59.184Z,7.94
2018-10-09T06:55:59.054Z,7.90
2018-10-09T06:56:59.041Z,7.84
2018-10-09T06:57:59.032Z,7.72
2018-10-09T06:58:59.018Z,7.62
2018-10-09T06:59:59.008Z,7.57
2018-10-09T07:00:58.997Z,7.55
2018-10-09T07:01:58.987Z,7.55
2018-10-09T07:02:58.979Z,7.55
2018-10-09T07:03:58.963Z,7.60
2018-10-09T07:04:58.952Z,7.65
2018-10-09T07:05:58.942Z,7.73
2018-10-09T07:06:58.932Z,7.75
2018-10-09T07:07:58.922Z,7.70
2018-10-09T07:08:58.911Z,7.70
2018-10-09T07:09:58.898Z,7.69
2018-10-09T07:10:58.898Z,7.72
2018-10-09T07:11:58.877Z,7.75
2018-10-09T07:12:58.865Z,7.78
2018-10-09T07:13:58.856Z,7.84
2018-10-09T07:14:58.843Z,7.87
2018-10-09T07:15:58.831Z,7.90
2018-10-09T07:16:58.837Z,7.90
2018-10-09T07:17:58.811Z,7.88
2018-10-09T07:18:58.813Z,7.85
2018-10-09T07:19:58.792Z,7.81
2018-10-09T07:20:58.778Z,7.83
2018-10-09T07:21:58.768Z,7.80
2018-10-09T07:22:58.758Z,7.84
2018-10-09T07:23:58.746Z,7.90
2018-10-09T07:24:58.736Z,7.93
2018-10-09T07:25:58.724Z,7.98
2018-10-09T07:26:58.715Z,8.05
2018-10-09T07:27:58.759Z,8.03
2018-10-09T07:28:58.696Z,8.09
2018-10-09T07:29:58.681Z,8.17
2018-10-09T07:30:58.669Z,8.20
2018-10-09T07:31:58.757Z,8.23
2018-10-09T07:32:58.648Z,8.30
2018-10-09T07:33:58.638Z,8.30
2018-10-09T07:34:58.625Z,8.31
2018-10-09T07:35:58.614Z,8.30
2018-10-09T07:36:58.601Z,8.35
2018-10-09T07:37:58.593Z,8.39
2018-10-09T07:38:58.581Z,8.43
2018-10-09T07:39:58.569Z,8.49
2018-10-09T07:40:58.559Z,8.54
2018-10-09T07:41:58.549Z,8.58
2018-10-09T07:42:58.535Z,8.64
2018-10-09T07:43:58.556Z,8.68
2018-10-09T07:44:58.517Z,8.73
2018-10-09T07:45:58.508Z,8.79
2018-10-09T07:46:58.493Z,8.85
2018-10-09T07:47:58.483Z,8.89
2018-10-09T07:48:58.476Z,8.97
2018-10-09T07:49:58.462Z,9.04
2018-10-09T07:50:58.450Z,9.09
2018-10-09T07:51:58.438Z,9.15
2018-10-09T07:52:58.491Z,9.19
2018-10-09T07:53:58.418Z,9.22
2018-10-09T07:54:58.409Z,9.30
2018-10-09T07:55:58.396Z,9.39
2018-10-09T07:56:58.384Z,9.44
2018-10-09T07:57:58.373Z,9.48
2018-10-09T07:58:58.364Z,9.48
2018-10-09T07:59:58.352Z,9.47
2018-10-09T08:00:58.341Z,9.52
2018-10-09T08:01:58.329Z,9.58
2018-10-09T08:02:58.318Z,9.62
2018-10-09T08:03:58.306Z,9.67
2018-10-09T08:04:58.297Z,9.64
2018-10-09T08:05:58.286Z,9.66
2018-10-09T08:06:58.273Z,9.67
2018-10-09T08:07:58.263Z,9.69
2018-10-09T08:08:58.253Z,9.74
2018-10-09T08:09:58.243Z,9.77
2018-10-09T08:10:58.434Z,9.83
2018-10-09T08:11:58.220Z,9.89
2018-10-09T08:12:58.210Z,9.96
2018-10-09T08:13:58.198Z,10.01
2018-10-09T08:14:58.187Z,10.04
2018-10-09T08:15:58.178Z,10.11
2018-10-09T08:16:58.170Z,10.17
2018-10-09T08:17:58.155Z,10.24
2018-10-09T08:18:58.145Z,10.25
2018-10-09T08:19:58.134Z,10.26
2018-10-09T08:20:58.121Z,10.34
2018-10-09T08:21:58.112Z,10.36
2018-10-09T08:22:58.206Z,10.47
2018-10-09T08:23:58.101Z,10.57
2018-10-09T08:24:58.077Z,10.67
2018-10-09T08:25:58.069Z,10.74
2018-10-09T08:26:58.065Z,10.80
2018-10-09T08:27:58.097Z,10.89
2018-10-09T08:28:58.034Z,10.97
2018-10-09T08:29:58.022Z,11.02
2018-10-09T08:30:58.012Z,11.05
2018-10-09T08:31:58.003Z,11.08
2018-10-09T08:32:57.990Z,11.10
2018-10-09T08:33:57.981Z,11.11
2018-10-09T08:34:57.970Z,11.21
2018-10-09T08:35:57.958Z,11.27
2018-10-09T08:36:57.951Z,11.35
2018-10-09T08:37:57.937Z,11.48
2018-10-09T08:38:57.925Z,11.53
2018-10-09T08:39:57.915Z,11.62
2018-10-09T08:40:57.904Z,11.74
2018-10-09T08:41:57.894Z,11.84
2018-10-09T08:42:57.882Z,11.90
2018-10-09T08:43:57.872Z,11.97
2018-10-09T08:44:57.861Z,12.04
2018-10-09T08:45:57.849Z,12.14
2018-10-09T08:46:57.844Z,12.22
2018-10-09T08:47:57.827Z,12.35
2018-10-09T08:48:57.816Z,12.45
2018-10-09T08:49:57.808Z,12.55
2018-10-09T08:50:57.794Z,12.57
2018-10-09T08:51:57.889Z,12.67
2018-10-09T08:52:57.774Z,12.73
2018-10-09T08:53:57.764Z,12.80
2018-10-09T08:54:57.752Z,12.84
2018-10-09T08:55:57.740Z,12.92
2018-10-09T08:56:57.730Z,13.04
2018-10-09T08:57:57.728Z,13.13
2018-10-09T08:58:57.739Z,13.19
2018-10-09T08:59:57.711Z,13.17
2018-10-09T09:00:57.685Z,13.13
2018-10-09T09:01:57.674Z,13.14
2018-10-09T09:02:57.671Z,13.12
2018-10-09T09:03:57.653Z,13.16
2018-10-09T09:04:57.642Z,13.17
2018-10-09T09:05:57.632Z,13.21
2018-10-09T09:06:57.621Z,13.24
2018-10-09T09:07:57.609Z,13.29
2018-10-09T09:08:57.596Z,13.37
2018-10-09T09:09:57.589Z,13.38
2018-10-09T09:10:57.577Z,13.38
2018-10-09T09:11:57.565Z,13.37
2018-10-09T09:12:57.554Z,13.37
2018-10-09T09:13:57.564Z,13.34
2018-10-09T09:14:57.538Z,13.34
2018-10-09T09:15:57.521Z,13.27
2018-10-09T09:16:57.513Z,13.24
2018-10-09T09:17:57.506Z,13.25
2018-10-09T09:18:57.486Z,13.17
2018-10-09T09:19:57.485Z,13.19
2018-10-09T09:21:57.465Z,13.17
2018-10-09T09:22:57.444Z,13.17
2018-10-09T09:23:57.443Z,13.17
2018-10-09T09:24:57.433Z,13.16
2018-10-09T09:25:57.411Z,13.21
2018-10-09T09:26:57.428Z,13.21
2018-10-09T09:27:57.390Z,13.25
2018-10-09T09:28:57.380Z,13.29
2018-10-09T09:29:57.368Z,13.32
2018-10-09T09:30:57.360Z,13.31
2018-10-09T09:31:57.345Z,13.32
2018-10-09T09:32:57.376Z,13.31
2018-10-09T09:33:57.335Z,13.38
2018-10-09T09:34:57.316Z,13.42
2018-10-09T09:35:57.305Z,13.47
2018-10-09T09:36:57.291Z,13.53
2018-10-09T09:37:57.280Z,13.58
2018-10-09T09:38:57.268Z,13.64
2018-10-09T09:39:57.255Z,13.68
2018-10-09T09:40:57.246Z,13.72
2018-10-09T09:41:57.235Z,13.78
2018-10-09T09:42:57.231Z,13.82
2018-10-09T09:43:57.212Z,13.89
2018-10-09T09:44:57.207Z,13.98
2018-10-09T09:45:57.381Z,14.01
2018-10-09T09:46:57.182Z,14.09
2018-10-09T09:47:57.175Z,14.09
2018-10-09T09:48:57.157Z,14.08
2018-10-09T09:49:57.148Z,14.03
2018-10-09T09:50:57.136Z,14.00
2018-10-09T09:51:57.175Z,14.00
2018-10-09T09:52:57.113Z,14.01
2018-10-09T09:53:57.103Z,14.08
2018-10-09T09:54:57.091Z,14.16
2018-10-09T09:55:57.082Z,14.21
2018-10-09T09:56:57.074Z,14.29
2018-10-09T09:57:57.262Z,14.39
2018-10-09T09:58:57.279Z,14.44
2018-10-09T09:59:57.036Z,14.42
2018-10-09T10:00:57.026Z,14.42
2018-10-09T10:01:57.015Z,14.45
2018-10-09T10:02:57.003Z,14.46
2018-10-09T10:03:56.993Z,14.45
2018-10-09T10:04:56.986Z,14.48
2018-10-09T10:05:56.970Z,14.48
2018-10-09T10:06:56.961Z,14.59
2018-10-09T10:07:56.953Z,14.71
2018-10-09T10:08:56.937Z,14.79
2018-10-09T10:09:56.929Z,14.89
2018-10-09T10:10:56.916Z,14.93
2018-10-09T10:11:56.907Z,14.99
2018-10-09T10:12:56.896Z,15.06
2018-10-09T10:13:56.883Z,15.15
2018-10-09T10:14:56.872Z,15.22
2018-10-09T10:15:56.862Z,15.30
2018-10-09T10:16:56.852Z,15.37
2018-10-09T10:17:56.840Z,15.45
2018-10-09T10:18:56.829Z,15.55
2018-10-09T10:19:56.821Z,15.66
2018-10-09T10:20:56.810Z,15.74
2018-10-09T10:21:56.799Z,15.81
2018-10-09T10:22:56.790Z,15.85
2018-10-09T10:23:56.777Z,15.88
2018-10-09T10:24:56.764Z,15.96
2018-10-09T10:25:56.758Z,15.96
2018-10-09T10:26:56.745Z,16.03
2018-10-09T10:27:56.732Z,16.07
2018-10-09T10:28:56.755Z,16.18
2018-10-09T10:29:56.711Z,16.28
2018-10-09T10:30:56.699Z,16.41
2018-10-09T10:31:56.688Z,16.56
2018-10-09T10:32:56.707Z,16.65
2018-10-09T10:33:56.665Z,16.72
2018-10-09T10:34:56.657Z,16.79
2018-10-09T10:35:56.644Z,16.84
2018-10-09T10:36:56.633Z,16.91
2018-10-09T10:37:56.624Z,16.99
2018-10-09T10:38:56.617Z,17.06
2018-10-09T10:39:56.601Z,17.12
2018-10-09T10:40:56.589Z,17.20
2018-10-09T10:41:56.602Z,17.25
2018-10-09T10:42:56.568Z,17.36
2018-10-09T10:43:56.559Z,17.43
2018-10-09T10:44:56.545Z,17.53
2018-10-09T10:45:56.535Z,17.60
2018-10-09T10:46:56.523Z,17.67
2018-10-09T10:47:56.513Z,17.76
2018-10-09T10:48:56.558Z,17.85
2018-10-09T10:49:56.495Z,17.94
2018-10-09T10:50:56.483Z,18.03
2018-10-09T10:51:56.472Z,18.09
2018-10-09T10:52:56.460Z,18.20
2018-10-09T10:53:56.448Z,18.30
2018-10-09T10:54:56.498Z,18.39
2018-10-09T10:55:56.434Z,18.50
2018-10-09T10:56:56.414Z,18.56
2018-10-09T10:57:56.407Z,18.62
2018-10-09T10:58:56.401Z,18.68
2018-10-09T10:59:56.380Z,18.71
2018-10-09T11:00:56.370Z,18.72
2018-10-09T11:01:56.416Z,18.76
2018-10-09T11:02:56.348Z,18.83
2018-10-09T11:03:56.338Z,18.94
2018-10-09T11:04:56.329Z,18.97
2018-10-09T11:05:56.317Z,19.09
2018-10-09T11:06:56.305Z,19.20
2018-10-09T11:07:56.325Z,19.27
2018-10-09T11:08:56.285Z,19.33
2018-10-09T11:09:56.274Z,19.37
2018-10-09T11:10:56.262Z,19.39
2018-10-09T11:11:56.252Z,19.44
2018-10-09T11:12:56.240Z,19.51
2018-10-09T11:13:56.230Z,19.61
2018-10-09T11:14:56.217Z,19.67
2018-10-09T11:15:56.206Z,19.79
2018-10-09T11:16:56.205Z,19.85
2018-10-09T11:17:56.189Z,19.94
2018-10-09T11:18:56.176Z,20.00
2018-10-09T11:19:56.170Z,20.01
2018-10-09T11:20:56.155Z,20.02
2018-10-09T11:21:56.144Z,19.97
2018-10-09T11:22:56.130Z,19.90
2018-10-09T11:23:56.122Z,19.87
2018-10-09T11:24:56.112Z,19.86
2018-10-09T11:25:56.100Z,19.86
2018-10-09T11:26:56.091Z,19.89
2018-10-09T11:27:56.078Z,19.92
2018-10-09T11:28:56.066Z,20.02
2018-10-09T11:29:56.055Z,20.12
2018-10-09T11:30:56.045Z,20.20
2018-10-09T11:31:56.034Z,20.26
2018-10-09T11:32:56.021Z,20.30
2018-10-09T11:33:56.011Z,20.34
2018-10-09T11:34:55.998Z,20.34
2018-10-09T11:35:55.987Z,20.27
2018-10-09T11:36:55.976Z,20.20
2018-10-09T11:37:55.967Z,20.13
2018-10-09T11:38:55.956Z,20.04
2018-10-09T11:39:55.944Z,20.02
2018-10-09T11:40:55.940Z,20.05
2018-10-09T11:41:55.923Z,20.13
2018-10-09T11:42:56.022Z,20.15
2018-10-09T11:43:55.917Z,20.13
2018-10-09T11:44:55.888Z,20.13
2018-10-09T11:45:55.889Z,20.12
2018-10-09T11:46:55.870Z,20.13
2018-10-09T11:47:55.855Z,20.13
2018-10-09T11:48:55.846Z,20.17
2018-10-09T11:49:55.834Z,20.23
2018-10-09T11:50:55.825Z,20.27
2018-10-09T11:51:55.814Z,20.34
2018-10-09T11:52:55.803Z,20.40
2018-10-09T11:53:55.853Z,20.47
2018-10-09T11:54:55.781Z,20.53
2018-10-09T11:55:55.775Z,20.59
2018-10-09T11:56:55.763Z,20.60
2018-10-09T11:57:55.746Z,20.56
2018-10-09T11:58:55.798Z,20.50
2018-10-09T11:59:55.726Z,20.42
2018-10-09T12:00:55.717Z,20.35
2018-10-09T12:01:55.704Z,20.30
2018-10-09T12:02:55.765Z,20.30
2018-10-09T12:03:55.681Z,20.33
2018-10-09T12:04:55.669Z,20.37
2018-10-09T12:05:55.843Z,20.40
2018-10-09T12:06:55.659Z,20.40
2018-10-09T12:07:55.639Z,20.45
2018-10-09T12:08:55.629Z,20.49
2018-10-09T12:09:55.617Z,20.56
2018-10-09T12:10:55.610Z,20.52
2018-10-09T12:11:55.595Z,20.53
2018-10-09T12:12:55.583Z,20.52
2018-10-09T12:13:55.572Z,20.52
2018-10-09T12:14:55.560Z,20.56
2018-10-09T12:15:55.587Z,20.38
2018-10-09T12:16:55.546Z,20.25
2018-10-09T12:17:55.541Z,20.22
2018-10-09T12:18:55.529Z,20.20
2018-10-09T12:19:55.518Z,20.16
2018-10-09T12:20:55.513Z,20.00
2018-10-09T12:21:55.510Z,20.00
2018-10-09T12:22:55.490Z,20.01
2018-10-09T12:23:55.478Z,19.92
2018-10-09T12:24:55.462Z,19.87
2018-10-09T12:25:55.455Z,19.87
2018-10-09T12:26:55.461Z,19.90
2018-10-09T12:27:55.421Z,19.92
2018-10-09T12:28:55.410Z,19.92
2018-10-09T12:29:55.398Z,19.82
2018-10-09T12:30:55.387Z,19.79
2018-10-09T12:31:55.377Z,19.80
2018-10-09T12:32:55.418Z,19.86
2018-10-09T12:33:55.355Z,19.94
2018-10-09T12:34:55.346Z,20.00
2018-10-09T12:35:55.332Z,20.04
2018-10-09T12:36:55.322Z,20.01
2018-10-09T12:37:55.311Z,20.02
2018-10-09T12:38:55.302Z,20.05
2018-10-09T12:39:55.290Z,20.08
2018-10-09T12:40:55.280Z,20.10
2018-10-09T12:41:55.269Z,20.13
2018-10-09T12:42:55.260Z,20.16
2018-10-09T12:43:55.282Z,20.15
2018-10-09T12:44:55.239Z,20.07
2018-10-09T12:45:55.230Z,20.10
2018-10-09T12:46:55.215Z,20.15
2018-10-09T12:47:55.207Z,20.20
2018-10-09T12:48:55.193Z,20.27
2018-10-09T12:49:55.187Z,20.25
2018-10-09T12:50:55.170Z,20.22
2018-10-09T12:51:55.160Z,20.26
2018-10-09T12:52:55.194Z,20.33
2018-10-09T12:53:55.139Z,20.37
2018-10-09T12:54:55.128Z,20.42
2018-10-09T12:55:55.118Z,20.49
2018-10-09T12:56:55.131Z,20.56
2018-10-09T12:57:55.096Z,20.55
2018-10-09T12:58:55.132Z,20.56
2018-10-09T12:59:55.074Z,20.47
2018-10-09T13:00:55.062Z,20.35
2018-10-09T13:01:55.050Z,20.35
2018-10-09T13:02:55.068Z,20.41
2018-10-09T13:03:55.029Z,20.47
2018-10-09T13:04:55.021Z,20.55
2018-10-09T13:05:55.009Z,20.59
2018-10-09T13:06:54.998Z,20.52
2018-10-09T13:07:54.987Z,20.40
2018-10-09T13:08:54.978Z,20.44